Time;durP1;ratioP1;P1;durP2;ratioP2;P2;SDS_P1;SDS_P2;PMS_P1;PMS_P2;Temp;Humidity;BMP_temperature;BMP_pressure;BME280_temperature;BME280_humidity;BME280_pressure;Samples;Min_cycle;Max_cycle;Signal;HPM_P1;HPM_P2
2022/04/06 00:00:22;;;;;;;6.53;5.10;;;;;;;6.03;56.74;94427.66;5110869;28;20063;-75
2022/04/06 00:02:48;;;;;;;6.75;4.93;;;;;;;6.05;56.80;94428.38;5110806;28;20153;-75
2022/04/06 00:05:13;;;;;;;6.65;4.97;;;;;;;6.04;56.76;94426.72;5109435;28;20035;-75
2022/04/06 00:07:39;;;;;;;10.32;5.38;;;;;;;6.04;56.95;94431.88;5093681;28;20040;-75
2022/04/06 00:10:05;;;;;;;7.53;5.18;;;;;;;6.05;56.68;94428.38;5076011;28;20054;-75
2022/04/06 00:12:31;;;;;;;9.48;5.18;;;;;;;5.98;56.70;94415.09;5092553;28;20027;-75
2022/04/06 00:14:56;;;;;;;7.00;5.20;;;;;;;6.00;56.75;94428.69;5109728;28;20446;-75
2022/04/06 00:17:22;;;;;;;5.72;4.75;;;;;;;5.94;56.54;94418.81;5109429;28;20058;-75
2022/04/06 00:19:47;;;;;;;8.43;5.15;;;;;;;5.94;56.79;94423.97;5119453;28;20024;-75
2022/04/06 00:22:13;;;;;;;6.95;5.07;;;;;;;6.00;56.70;94427.88;5112694;28;20027;-75
2022/04/06 00:24:38;;;;;;;8.15;4.97;;;;;;;6.02;56.77;94433.75;5112800;28;20190;-75
2022/04/06 00:27:04;;;;;;;8.20;5.00;;;;;;;6.00;56.79;94428.69;5112741;28;20027;-75
2022/04/06 00:29:29;;;;;;;8.27;5.32;;;;;;;5.89;56.63;94420.88;5113586;28;20035;-75
2022/04/06 00:31:54;;;;;;;8.05;5.53;;;;;;;5.79;57.02;94407.81;5113098;28;20023;-75
2022/04/06 00:35:28;;;;;;;6.65;5.13;;;;;;;5.86;56.99;94426.25;5113841;27;20016;-75
2022/04/06 00:37:05;;;;;;;7.55;5.10;;;;;;;5.81;56.89;94420.59;5100057;27;20051;-76
2022/04/06 00:39:31;;;;;;;6.70;4.63;;;;;;;5.76;57.33;94438.13;5095873;28;20040;-75
2022/04/06 00:41:56;;;;;;;7.00;5.07;;;;;;;5.63;57.87;94429.59;5114080;28;20031;-75
2022/04/06 00:44:21;;;;;;;6.55;5.05;;;;;;;5.63;57.67;94429.59;5132868;27;20042;-75
2022/04/06 00:46:47;;;;;;;8.02;4.88;;;;;;;5.52;57.84;94420.88;5116233;27;20027;-75
2022/04/06 00:49:14;;;;;;;7.00;5.35;;;;;;;5.54;58.25;94436.19;5116107;27;20034;-76
2022/04/06 00:51:48;;;;;;;8.95;5.30;;;;;;;5.40;58.54;94418.31;5099337;27;20039;-75
2022/04/06 00:54:15;;;;;;;6.63;4.57;;;;;;;5.49;58.18;94439.13;5132609;27;20027;-75
2022/04/06 00:56:42;;;;;;;7.45;5.30;;;;;;;5.48;58.47;94449.50;5099182;27;20023;-75
2022/04/06 00:59:07;;;;;;;10.35;5.50;;;;;;;5.37;58.32;94430.44;5133106;27;20027;-75
2022/04/06 01:01:35;;;;;;;6.45;4.68;;;;;;;5.37;58.20;94420.16;5098824;27;20046;-75
2022/04/06 01:04:00;;;;;;;6.97;4.63;;;;;;;5.57;57.93;94443.72;5111682;28;20038;-75
2022/04/06 01:06:26;;;;;;;8.43;4.68;;;;;;;5.65;57.88;94448.34;5112478;28;20032;-75
2022/04/06 01:08:52;;;;;;;5.90;4.55;;;;;;;5.65;57.81;94444.00;5113709;28;20028;-75
2022/04/06 01:11:18;;;;;;;7.32;5.00;;;;;;;5.65;57.69;94453.50;5112458;28;20031;-75
2022/04/06 01:13:44;;;;;;;8.90;5.00;;;;;;;5.62;57.75;94446.81;5095443;28;20044;-75
2022/04/06 01:16:10;;;;;;;7.05;4.55;;;;;;;5.55;57.93;94437.88;5095364;28;20556;-75
2022/04/06 01:18:36;;;;;;;7.07;4.68;;;;;;;5.45;58.19;94431.69;5112120;28;20032;-75
2022/04/06 01:21:02;;;;;;;6.97;4.82;;;;;;;5.45;58.29;94447.16;5113742;28;20036;-75
2022/04/06 01:23:28;;;;;;;6.43;4.95;;;;;;;5.37;58.51;94439.94;5122246;27;20035;-76
2022/04/06 01:25:53;;;;;;;6.05;4.65;;;;;;;5.28;58.58;94443.16;5132398;27;20096;-75
2022/04/06 01:28:19;;;;;;;8.27;4.65;;;;;;;5.24;58.96;94439.97;5115473;27;20046;-75
2022/04/06 01:30:44;;;;;;;8.65;4.57;;;;;;;5.15;58.94;94441.41;5132707;27;20031;-75
2022/04/06 01:33:10;;;;;;;7.45;5.10;;;;;;;5.21;58.94;94447.06;5115639;27;20034;-75
2022/04/06 01:35:38;;;;;;;7.75;4.85;;;;;;;5.16;59.24;94442.22;5111793;28;20481;-75
2022/04/06 01:38:04;;;;;;;9.00;4.90;;;;;;;5.11;59.04;94436.56;5095179;28;20040;-75
2022/04/06 01:40:30;;;;;;;7.45;5.07;;;;;;;5.15;59.21;94443.16;5093941;28;20042;-75
2022/04/06 01:42:56;;;;;;;11.20;5.18;;;;;;;4.98;60.20;94438.31;5094769;28;20032;-75
2022/04/06 01:45:22;;;;;;;8.82;5.30;;;;;;;5.01;59.99;94444.06;5113919;27;20114;-75
2022/04/06 01:47:47;;;;;;;7.63;4.80;;;;;;;4.97;59.77;94431.53;5111568;28;20130;-75
2022/04/06 01:52:57;;;;;;;6.07;4.57;;;;;;;5.03;59.87;94442.22;5120925;27;20045;-76
2022/04/06 01:55:22;;;;;;;6.65;4.60;;;;;;;5.01;59.70;94448.41;5115011;27;20032;-75
2022/04/06 01:57:48;;;;;;;9.55;5.03;;;;;;;4.98;59.95;94439.13;5131994;27;20027;-75
2022/04/06 02:00:15;;;;;;;6.60;4.80;;;;;;;4.98;60.10;94440.88;5114999;27;20035;-76
2022/04/06 02:02:40;;;;;;;9.40;5.22;;;;;;;4.86;60.00;94433.06;5131750;27;20481;-75
2022/04/06 02:05:06;;;;;;;8.88;5.22;;;;;;;4.91;60.26;94438.72;5095588;28;20046;-75
2022/04/06 02:07:32;;;;;;;6.57;4.82;;;;;;;4.83;60.01;94435.81;5077301;28;20562;-75
2022/04/06 02:09:59;;;;;;;6.20;4.68;;;;;;;4.86;60.27;94453.63;5111291;28;20040;-75
2022/04/06 02:12:25;;;;;;;10.80;4.78;;;;;;;4.84;60.34;94445.19;5118832;27;20023;-75
2022/04/06 02:14:50;;;;;;;7.93;5.50;;;;;;;4.84;60.38;94445.19;5114464;27;20414;-75
2022/04/06 02:17:16;;;;;;;6.97;4.80;;;;;;;4.79;60.54;94449.00;5131683;27;20339;-75
2022/04/06 02:19:41;;;;;;;7.18;5.10;;;;;;;4.85;60.37;94446.84;5114263;27;20114;-75
2022/04/06 02:22:07;;;;;;;9.77;5.35;;;;;;;4.77;60.75;94446.53;5132625;27;20087;-75
2022/04/06 02:24:33;;;;;;;6.00;4.78;;;;;;;4.73;60.97;94451.97;5112069;27;20473;-75
2022/04/06 02:26:58;;;;;;;6.70;4.57;;;;;;;4.70;60.72;94455.56;5131417;27;20019;-75
2022/04/06 02:29:24;;;;;;;7.88;4.55;;;;;;;4.75;61.04;94460.44;5114141;27;20053;-75
2022/04/06 02:31:50;;;;;;;6.63;4.65;;;;;;;4.74;60.77;94458.78;5114668;27;20572;-75
2022/04/06 02:34:15;;;;;;;7.30;4.57;;;;;;;4.72;60.65;94456.31;5105395;28;20028;-75
2022/04/06 02:36:41;;;;;;;8.95;4.80;;;;;;;4.73;60.63;94460.50;5092921;28;20063;-75
2022/04/06 02:39:06;;;;;;;7.65;5.00;;;;;;;4.66;61.18;94464.44;5093506;28;20028;-75
2022/04/06 02:41:32;;;;;;;6.13;4.68;;;;;;;4.62;61.06;94460.38;5110145;28;20032;-75
2022/04/06 02:43:57;;;;;;;12.60;5.05;;;;;;;4.62;60.87;94460.38;5093711;28;20039;-75
2022/04/06 02:46:22;;;;;;;7.60;4.85;;;;;;;4.60;60.81;94477.69;5093616;28;20061;-75
2022/04/06 02:48:48;;;;;;;7.32;4.80;;;;;;;4.55;60.96;94479.75;5093554;28;20020;-75
2022/04/06 02:51:13;;;;;;;7.25;4.60;;;;;;;4.44;61.42;94475.28;5126501;27;20087;-75
2022/04/06 02:53:39;;;;;;;7.50;5.05;;;;;;;4.39;61.68;94469.59;5112646;27;20030;-75
2022/04/06 02:56:04;;;;;;;10.95;5.20;;;;;;;4.30;62.32;94480.47;5131086;27;20035;-75
2022/04/06 02:58:30;;;;;;;7.22;4.90;;;;;;;4.24;62.25;94479.94;5130945;27;20027;-75
2022/04/06 03:00:56;;;;;;;6.93;4.53;;;;;;;4.28;62.09;94484.88;5130019;27;20480;-75
2022/04/06 03:03:22;;;;;;;6.32;4.60;;;;;;;4.30;62.08;94481.31;5111998;27;20027;-75
2022/04/06 03:05:48;;;;;;;8.30;4.35;;;;;;;4.28;62.43;94490.03;5130594;27;20042;-75
2022/04/06 03:08:13;;;;;;;7.88;4.63;;;;;;;4.20;62.21;94478.47;5110844;27;20039;-75
2022/04/06 03:10:39;;;;;;;7.63;4.70;;;;;;;4.18;62.53;94500.06;5111588;28;20035;-75
2022/04/06 03:13:04;;;;;;;8.05;4.93;;;;;;;4.17;62.93;94483.81;5110259;28;20034;-75
2022/04/06 03:15:30;;;;;;;7.43;4.72;;;;;;;4.15;62.90;94490.81;5110178;28;20038;-75
2022/04/06 03:17:55;;;;;;;10.27;5.18;;;;;;;4.09;63.07;94492.94;5110147;28;20028;-75
2022/04/06 03:20:21;;;;;;;7.10;4.72;;;;;;;4.08;63.17;94499.00;5112081;27;20031;-75
2022/04/06 03:22:46;;;;;;;7.18;4.93;;;;;;;4.09;62.96;94504.03;5113276;28;20027;-75
2022/04/06 03:25:12;;;;;;;8.73;5.07;;;;;;;4.06;63.09;94500.84;5130675;28;20027;-75
2022/04/06 03:27:37;;;;;;;10.75;5.10;;;;;;;4.00;63.35;94482.28;5123067;28;20024;-75
2022/04/06 03:30:03;;;;;;;10.68;5.13;;;;;;;4.10;63.15;94497.16;5093006;28;20035;-75
2022/04/06 03:32:29;;;;;;;7.45;4.75;;;;;;;4.10;63.31;94492.03;5093011;28;20038;-75
2022/04/06 03:34:54;;;;;;;7.40;4.60;;;;;;;4.20;62.94;94505.94;5109909;28;20044;-75
2022/04/06 03:37:20;;;;;;;7.53;5.15;;;;;;;4.18;62.77;94502.63;5092467;28;20048;-75
2022/04/06 03:39:45;;;;;;;6.07;4.32;;;;;;;4.20;63.08;94499.03;5092964;28;20043;-75
2022/04/06 03:42:11;;;;;;;6.82;4.82;;;;;;;4.18;62.92;94489.78;5110943;28;20023;-75
2022/04/06 03:44:36;;;;;;;6.70;4.60;;;;;;;4.21;62.95;94502.47;5107600;28;20046;-75
2022/04/06 03:47:02;;;;;;;6.72;4.65;;;;;;;4.22;62.85;94501.53;5113137;28;20034;-75
2022/04/06 03:49:27;;;;;;;7.05;5.00;;;;;;;4.19;62.74;94497.41;5113255;28;20111;-75
2022/04/06 03:51:53;;;;;;;6.40;4.45;;;;;;;4.18;62.61;94492.34;5130339;28;20034;-75
2022/04/06 03:54:18;;;;;;;10.48;5.10;;;;;;;4.06;62.75;94493.94;5095750;28;20023;-75
2022/04/06 03:56:44;;;;;;;8.52;5.13;;;;;;;3.99;62.69;94487.53;5130208;28;20048;-75
2022/04/06 03:59:09;;;;;;;7.82;4.88;;;;;;;3.78;63.45;94476.84;5130288;28;20377;-75
2022/04/06 04:01:35;;;;;;;10.85;5.95;;;;;;;3.85;63.48;94496.09;5113220;28;20516;-75
2022/04/06 04:04:04;;;;;;;10.00;5.88;;;;;;;3.89;63.79;94507.84;5112448;28;20494;-75
2022/04/06 04:06:32;;;;;;;7.03;5.00;;;;;;;3.79;63.77;94509.34;5096953;28;20055;-75
2022/04/06 04:08:58;;;;;;;6.53;4.60;;;;;;;3.74;63.64;94519.88;5103196;27;20225;-75
2022/04/06 04:11:23;;;;;;;8.57;4.53;;;;;;;3.76;63.56;94524.91;5155835;27;20034;-75
2022/04/06 04:13:49;;;;;;;9.60;4.97;;;;;;;3.79;63.59;94529.91;5137551;27;20094;-75
2022/04/06 04:16:14;;;;;;;7.40;4.13;;;;;;;3.95;63.32;94534.91;5137477;27;20037;-75
2022/04/06 04:18:40;;;;;;;8.73;4.40;;;;;;;3.98;63.16;94519.28;5134704;27;20389;-75
2022/04/06 04:23:50;;;;;;;5.18;3.97;;;;;;;4.12;62.58;94536.44;5119510;27;20424;-75
2022/04/06 04:26:15;;;;;;;6.95;4.30;;;;;;;4.16;62.81;94543.06;5133903;27;20031;-75
2022/04/06 04:28:41;;;;;;;6.47;4.32;;;;;;;4.19;62.88;94548.00;5121452;27;20040;-75
2022/04/06 04:31:06;;;;;;;6.78;4.43;;;;;;;4.17;62.26;94547.25;5113309;28;20031;-75
2022/04/06 04:33:31;;;;;;;8.25;4.80;;;;;;;4.16;62.18;94537.91;5096100;28;20076;-75
2022/04/06 04:35:57;;;;;;;7.70;4.72;;;;;;;4.22;62.16;94552.97;5113006;28;20047;-75
2022/04/06 04:38:23;;;;;;;6.93;4.63;;;;;;;4.05;62.98;94536.00;5113884;27;20031;-75
2022/04/06 04:40:48;;;;;;;7.38;4.82;;;;;;;4.08;62.84;94548.66;5096065;28;20036;-75
2022/04/06 04:43:13;;;;;;;6.03;4.35;;;;;;;3.94;63.15;94546.94;5112953;28;20420;-75
2022/04/06 04:45:39;;;;;;;6.88;4.50;;;;;;;3.95;63.12;94556.28;5101568;27;20481;-75
2022/04/06 04:48:04;;;;;;;9.13;5.13;;;;;;;3.92;63.28;94555.66;5133298;27;20019;-75
2022/04/06 04:50:30;;;;;;;7.47;5.10;;;;;;;3.71;64.10;94548.34;5116315;27;20075;-75
2022/04/06 04:52:55;;;;;;;6.45;4.57;;;;;;;3.93;64.07;94560.72;5133296;27;20023;-75
2022/04/06 04:55:21;;;;;;;8.27;4.63;;;;;;;4.22;62.51;94515.19;5113581;27;20092;-75
2022/04/06 04:57:46;;;;;;;6.95;4.22;;;;;;;5.35;59.80;94561.13;5115688;27;20057;-75
2022/04/06 05:00:12;;;;;;;7.38;4.35;;;;;;;6.16;57.30;94564.31;5128458;27;20024;-76
2022/04/06 05:02:38;;;;;;;7.15;4.88;;;;;;;6.86;54.82;94567.06;5132470;27;20110;-76
2022/04/06 05:05:07;;;;;;;6.00;4.95;;;;;;;7.51;53.01;94578.66;5098788;27;20043;-74
2022/04/06 05:07:37;;;;;;;6.95;4.70;;;;;;;8.14;51.57;94581.69;5117603;27;20043;-73
2022/04/06 05:10:04;;;;;;;7.47;4.57;;;;;;;8.78;49.21;94581.03;5130916;27;20037;-73
2022/04/06 05:12:29;;;;;;;5.85;3.83;;;;;;;9.31;48.10;94580.28;5126724;27;20023;-74
2022/04/06 05:14:55;;;;;;;6.30;3.53;;;;;;;9.81;47.52;94586.47;5130124;27;20404;-75
2022/04/06 05:17:20;;;;;;;4.72;3.20;;;;;;;10.29;45.56;94593.69;5127138;27;20104;-75
2022/04/06 05:19:45;;;;;;;5.13;3.58;;;;;;;10.30;44.90;94589.31;5110077;27;20104;-75
2022/04/06 05:22:11;;;;;;;6.55;4.30;;;;;;;10.41;44.07;94599.59;5127458;27;20038;-75
2022/04/06 05:24:36;;;;;;;8.32;4.28;;;;;;;10.10;43.09;94588.38;5108465;28;20092;-75
2022/04/06 05:27:03;;;;;;;5.55;4.15;;;;;;;9.70;45.60;94599.50;5126827;27;20076;-75
2022/04/06 05:29:29;;;;;;;5.68;3.95;;;;;;;9.11;46.95;94587.88;5137726;27;20031;-73
2022/04/06 05:31:54;;;;;;;8.85;4.72;;;;;;;8.71;46.70;94588.47;5128010;27;20088;-75
2022/04/06 05:34:20;;;;;;;6.53;3.95;;;;;;;8.63;49.01;94592.59;5109430;27;20019;-75
2022/04/06 05:36:45;;;;;;;6.32;3.60;;;;;;;8.50;49.48;94598.75;5108781;28;20048;-75
2022/04/06 05:39:10;;;;;;;4.03;2.92;;;;;;;8.37;49.76;94581.66;5110779;28;20024;-75
2022/04/06 05:41:36;;;;;;;7.38;3.20;;;;;;;8.37;49.63;94605.78;5121747;27;20509;-75
2022/04/06 05:44:01;;;;;;;5.40;3.30;;;;;;;8.10;50.30;94620.84;5121319;27;20027;-71
2022/04/06 05:46:27;;;;;;;7.47;3.72;;;;;;;8.02;50.85;94617.09;5118261;27;20041;-72
2022/04/06 05:48:53;;;;;;;7.78;5.38;;;;;;;7.94;50.62;94616.84;5117111;27;20031;-76
2022/04/06 05:51:18;;;;;;;8.95;6.43;;;;;;;8.04;49.60;94612.59;5114383;27;20111;-71
2022/04/06 05:53:44;;;;;;;12.00;6.43;;;;;;;8.07;49.72;94617.53;5109103;27;20489;-73
2022/04/06 05:56:09;;;;;;;11.00;6.35;;;;;;;8.07;48.38;94612.34;5093134;27;20064;-72
2022/04/06 05:58:34;;;;;;;9.88;5.78;;;;;;;8.24;49.33;94618.81;5117731;27;20091;-74
2022/04/06 06:01:00;;;;;;;11.65;5.55;;;;;;;8.54;47.96;94619.22;5115998;27;20044;-70
2022/04/06 06:03:25;;;;;;;10.25;6.03;;;;;;;8.46;47.52;94628.38;5116072;27;20028;-72
2022/04/06 06:05:51;;;;;;;10.38;6.18;;;;;;;8.57;46.88;94626.75;5119932;27;20095;-73
2022/04/06 06:08:16;;;;;;;9.05;5.70;;;;;;;8.34;46.66;94602.63;5112187;27;20027;-78
2022/04/06 06:10:42;;;;;;;10.05;5.93;;;;;;;8.54;46.13;94626.97;5093868;28;20421;-73
2022/04/06 06:13:07;;;;;;;12.60;5.38;;;;;;;8.57;46.89;94624.16;5107571;27;20083;-76
2022/04/06 06:15:33;;;;;;;9.68;5.80;;;;;;;8.82;45.73;94628.25;5114970;27;20148;-73
2022/04/06 06:17:58;;;;;;;10.50;5.93;;;;;;;8.94;45.67;94630.69;5129022;27;20034;-73
2022/04/06 06:20:24;;;;;;;12.90;5.80;;;;;;;9.10;45.16;94632.06;5129858;27;20019;-78
2022/04/06 06:22:49;;;;;;;8.55;5.55;;;;;;;9.17;45.12;94633.22;5102291;27;20039;-78
2022/04/06 06:25:15;;;;;;;11.05;6.55;;;;;;;9.38;44.89;94621.09;5108706;27;20027;-78
2022/04/06 06:27:40;;;;;;;10.93;6.53;;;;;;;9.42;44.78;94618.25;5128552;27;20032;-74
2022/04/06 06:30:07;;;;;;;8.75;5.75;;;;;;;9.61;45.02;94626.19;5120671;27;20035;-80
2022/04/06 06:32:32;;;;;;;7.78;5.50;;;;;;;9.74;43.87;94626.81;5127087;27;20468;-72
2022/04/06 06:34:58;;;;;;;7.63;5.05;;;;;;;9.83;44.13;94615.72;5124192;27;20031;-73
2022/04/06 06:37:23;;;;;;;7.07;4.50;;;;;;;9.95;43.65;94613.03;5129324;27;20445;-73
2022/04/06 06:39:49;;;;;;;7.57;5.22;;;;;;;10.15;43.40;94614.78;5128997;27;20477;-73
2022/04/06 06:42:15;;;;;;;7.85;4.47;;;;;;;10.32;42.90;94613.38;5128292;27;20205;-73
2022/04/06 06:44:40;;;;;;;6.35;4.63;;;;;;;10.49;42.67;94612.75;5127528;27;20918;-73
2022/04/06 06:47:06;;;;;;;11.18;4.70;;;;;;;10.69;42.34;94610.22;5112173;27;20030;-73
2022/04/06 06:49:31;;;;;;;8.18;5.40;;;;;;;10.86;42.58;94609.56;5129885;27;20042;-71
2022/04/06 06:51:57;;;;;;;9.23;4.78;;;;;;;11.05;41.24;94608.78;5128322;27;20532;-71
2022/04/06 06:54:22;;;;;;;7.57;5.25;;;;;;;11.12;41.46;94609.91;5132819;27;20412;-72
2022/04/06 06:56:48;;;;;;;9.75;5.70;;;;;;;11.15;41.40;94596.63;5129068;27;20027;-73
2022/04/06 06:59:13;;;;;;;10.50;5.35;;;;;;;11.28;41.94;94598.13;5114233;27;20507;-73
2022/04/06 07:01:40;;;;;;;7.63;4.97;;;;;;;11.43;41.30;94599.38;5136462;27;20433;-73
2022/04/06 07:04:07;;;;;;;7.70;4.95;;;;;;;11.50;40.76;94603.06;5111881;27;20039;-73
2022/04/06 07:06:32;;;;;;;8.23;5.28;;;;;;;11.53;41.02;94599.38;5129129;27;20416;-73
2022/04/06 07:08:58;;;;;;;6.95;4.95;;;;;;;11.75;40.60;94601.66;5126447;27;20015;-73
2022/04/06 07:11:23;;;;;;;8.75;5.03;;;;;;;11.88;40.85;94608.41;5135395;27;20043;-73
2022/04/06 07:13:49;;;;;;;8.18;6.05;;;;;;;11.93;39.96;94603.63;5128096;27;20056;-72
2022/04/06 07:16:15;;;;;;;11.25;6.15;;;;;;;11.77;40.18;94598.94;5130264;27;20076;-71
2022/04/06 07:18:41;;;;;;;12.73;5.32;;;;;;;11.77;40.21;94604.16;5128201;27;20185;-72
2022/04/06 07:21:06;;;;;;;7.63;4.97;;;;;;;11.84;40.67;94606.06;5129066;27;20032;-72
2022/04/06 07:23:33;;;;;;;8.45;5.10;;;;;;;12.07;40.28;94608.38;5129163;27;20561;-73
2022/04/06 07:25:58;;;;;;;6.95;4.68;;;;;;;12.18;39.77;94607.38;5090854;28;20039;-73
2022/04/06 07:28:24;;;;;;;6.22;4.15;;;;;;;12.26;39.46;94604.91;5129877;27;20420;-73
2022/04/06 07:30:49;;;;;;;8.38;4.30;;;;;;;12.35;39.06;94605.81;5127443;27;20047;-74
2022/04/06 07:33:15;;;;;;;7.43;4.43;;;;;;;12.36;40.05;94610.88;5129223;27;20019;-74
2022/04/06 07:35:41;;;;;;;6.90;4.63;;;;;;;12.49;39.67;94606.16;5128199;27;20030;-73
2022/04/06 07:38:06;;;;;;;8.60;5.00;;;;;;;12.53;39.75;94597.09;5129324;27;20024;-74
2022/04/06 07:40:32;;;;;;;8.10;4.10;;;;;;;12.48;38.97;94603.69;5132259;27;20389;-74
2022/04/06 07:42:58;;;;;;;7.43;4.53;;;;;;;12.56;39.88;94595.16;5093401;28;20070;-74
2022/04/06 07:45:26;;;;;;;7.25;4.47;;;;;;;12.61;39.51;94596.38;5124535;27;20032;-73
2022/04/06 07:47:54;;;;;;;6.90;4.53;;;;;;;12.77;39.21;94603.56;5114395;27;20063;-74
2022/04/06 07:50:20;;;;;;;8.27;4.75;;;;;;;12.91;39.53;94604.88;5133244;27;20035;-74
2022/04/06 07:52:45;;;;;;;8.80;5.53;;;;;;;12.95;39.11;94601.84;5128422;27;20030;-74
2022/04/06 07:55:11;;;;;;;9.52;5.90;;;;;;;13.09;39.16;94607.50;5117941;27;20368;-74
2022/04/06 07:57:36;;;;;;;8.00;4.72;;;;;;;13.07;38.38;94604.22;5131917;27;20057;-73
2022/04/06 08:00:09;;;;;;;7.85;5.47;;;;;;;13.03;38.18;94600.25;5131969;27;20027;-74
2022/04/06 08:02:35;;;;;;;9.05;5.95;;;;;;;13.17;39.03;94604.97;5126975;27;20063;-74
2022/04/06 08:05:00;;;;;;;8.15;4.50;;;;;;;13.36;38.86;94594.44;5139506;27;20045;-74
2022/04/06 08:07:26;;;;;;;6.32;4.10;;;;;;;13.54;38.50;94593.59;5116178;27;20023;-72
2022/04/06 08:09:51;;;;;;;4.82;3.72;;;;;;;13.62;37.54;94598.88;5114226;27;20410;-72
2022/04/06 08:12:17;;;;;;;6.72;3.83;;;;;;;13.66;36.47;94600.22;5131130;27;20022;-73
2022/04/06 08:14:42;;;;;;;8.85;3.35;;;;;;;13.76;35.99;94600.13;5132675;27;20043;-74
2022/04/06 08:17:08;;;;;;;6.10;3.80;;;;;;;13.79;36.26;94598.06;5132996;27;20043;-74
2022/04/06 08:19:33;;;;;;;8.18;4.05;;;;;;;13.83;36.47;94596.78;5133231;27;20042;-74
2022/04/06 08:21:58;;;;;;;6.22;3.75;;;;;;;13.90;36.59;94590.94;5109280;28;20028;-73
2022/04/06 08:24:24;;;;;;;5.40;3.65;;;;;;;13.77;37.33;94593.97;5124976;27;20027;-74
2022/04/06 08:26:49;;;;;;;6.60;4.13;;;;;;;13.77;37.29;94589.56;5134223;27;20042;-74
2022/04/06 08:29:15;;;;;;;5.97;3.78;;;;;;;13.93;37.43;94591.47;5136635;27;20038;-73
2022/04/06 08:31:40;;;;;;;7.97;4.28;;;;;;;13.91;36.79;94592.59;5097864;27;20315;-74
2022/04/06 08:34:06;;;;;;;8.38;4.60;;;;;;;14.03;37.28;94591.34;5133117;27;20027;-74
2022/04/06 08:36:32;;;;;;;12.20;5.50;;;;;;;14.06;37.27;94589.25;5134937;27;20424;-74
2022/04/06 08:38:59;;;;;;;6.00;4.20;;;;;;;14.05;37.57;94574.56;5112368;27;20073;-74
2022/04/06 08:41:26;;;;;;;6.75;3.72;;;;;;;14.22;35.87;94578.09;5129845;27;20505;-74
2022/04/06 08:43:52;;;;;;;5.72;3.83;;;;;;;14.25;36.36;94590.84;5112365;27;20031;-73
2022/04/06 08:46:17;;;;;;;6.40;3.80;;;;;;;14.38;36.01;94581.78;5143370;27;20065;-74
2022/04/06 08:48:43;;;;;;;5.75;3.20;;;;;;;14.43;34.23;94585.56;5095252;27;20047;-74
2022/04/06 08:51:09;;;;;;;6.82;3.85;;;;;;;14.51;36.34;94579.53;5120431;27;20036;-73
2022/04/06 08:53:39;;;;;;;6.00;4.30;;;;;;;14.58;36.02;94572.75;5121693;27;20175;-74
2022/04/06 08:56:05;;;;;;;9.25;5.88;;;;;;;14.77;35.67;94587.38;5117770;27;20067;-74
2022/04/06 08:58:30;;;;;;;8.48;4.50;;;;;;;14.79;35.88;94571.50;5095838;27;20594;-72
2022/04/06 09:00:56;;;;;;;7.60;4.75;;;;;;;14.71;36.65;94575.75;5123569;27;20028;-72
2022/04/06 09:03:22;;;;;;;8.35;5.25;;;;;;;14.87;35.70;94564.50;5101419;27;20466;-72
2022/04/06 09:05:59;;;;;;;10.25;5.13;;;;;;;14.91;35.20;94544.09;5124067;27;20046;-72
2022/04/06 09:08:46;;;;;;;6.13;4.28;;;;;;;15.01;35.06;94560.44;5127048;27;20031;-72
2022/04/06 09:11:17;;;;;;;10.57;5.30;;;;;;;14.98;34.92;94566.81;5135397;27;20043;-72
2022/04/06 09:13:43;;;;;;;7.03;3.67;;;;;;;15.02;33.94;94562.09;5129780;27;20031;-72
2022/04/06 09:16:11;;;;;;;6.75;3.70;;;;;;;14.74;34.61;94501.41;5128152;27;20031;-75
2022/04/06 09:18:44;;;;;;;6.40;3.88;;;;;;;15.26;33.74;94561.31;5096223;27;20034;-71
2022/04/06 09:21:11;;;;;;;6.65;3.67;;;;;;;15.31;33.88;94550.38;5133069;27;20478;-72
2022/04/06 09:23:37;;;;;;;9.52;3.90;;;;;;;15.42;35.00;94544.81;5113126;27;20027;-72
2022/04/06 09:26:09;;;;;;;8.27;3.65;;;;;;;15.53;34.18;94543.66;5131686;27;20031;-72
2022/04/06 09:28:38;;;;;;;9.00;4.22;;;;;;;15.59;34.57;94532.53;5130798;27;20031;-72
2022/04/06 09:31:04;;;;;;;5.50;4.00;;;;;;;15.64;34.17;94536.31;5114899;27;20084;-72
2022/04/06 09:33:29;;;;;;;7.50;3.85;;;;;;;15.70;33.50;94528.81;5128070;27;20027;-72
2022/04/06 09:35:55;;;;;;;7.13;3.83;;;;;;;15.84;34.01;94522.88;5099142;27;20039;-72
2022/04/06 09:38:25;;;;;;;9.13;3.50;;;;;;;15.94;32.52;94536.63;5130861;27;20485;-72
2022/04/06 09:41:02;;;;;;;6.80;3.15;;;;;;;15.99;33.14;94526.47;5108168;28;20096;-72
2022/04/06 09:43:34;;;;;;;5.95;3.33;;;;;;;16.01;31.71;94523.69;5109019;28;20092;-72
2022/04/06 09:49:05;;;;;;;4.82;2.80;;;;;;;16.15;31.32;94522.97;5131091;27;20035;-73
2022/04/06 09:51:31;;;;;;;8.15;3.53;;;;;;;16.17;31.56;94513.16;5109562;27;20042;-73
2022/04/06 09:53:56;;;;;;;5.28;3.47;;;;;;;16.14;31.19;94512.69;5113352;27;20023;-72
2022/04/06 09:56:22;;;;;;;6.53;3.47;;;;;;;16.20;31.68;94506.75;5132637;27;20035;-72
2022/04/06 09:58:48;;;;;;;7.35;3.72;;;;;;;16.28;31.09;94506.75;5131054;27;20023;-72
2022/04/06 10:01:14;;;;;;;11.63;3.42;;;;;;;16.24;30.39;94500.19;5127676;27;20027;-73
2022/04/06 10:03:41;;;;;;;6.47;2.85;;;;;;;16.38;30.87;94501.28;5110238;27;20034;-72
2022/04/06 10:06:06;;;;;;;6.03;2.95;;;;;;;16.37;30.36;94484.75;5122933;27;20069;-72
2022/04/06 10:08:32;;;;;;;5.03;2.72;;;;;;;16.46;30.12;94496.00;5112135;27;20027;-72
2022/04/06 10:10:59;;;;;;;5.85;3.00;;;;;;;16.52;30.45;94493.53;5127406;27;20079;-73
2022/04/06 10:13:24;;;;;;;5.75;2.83;;;;;;;16.63;30.21;94494.13;5107459;27;20104;-72
2022/04/06 10:15:50;;;;;;;5.90;3.00;;;;;;;16.58;29.71;94488.59;5124921;27;20039;-76
2022/04/06 10:18:15;;;;;;;9.65;3.10;;;;;;;16.65;29.60;94472.00;5130299;27;20506;-77
2022/04/06 10:20:54;;;;;;;7.00;3.08;;;;;;;16.80;30.09;94469.50;5128371;27;20476;-77
2022/04/06 10:23:41;;;;;;;4.65;2.33;;;;;;;16.86;28.40;94468.78;5108673;28;20073;-76
2022/04/06 10:26:28;;;;;;;5.13;2.40;;;;;;;16.91;28.75;94479.59;5127091;27;20151;-76
2022/04/06 10:28:54;;;;;;;4.05;2.60;;;;;;;16.83;28.50;94447.34;5114706;27;20147;-76
2022/04/06 10:31:23;;;;;;;5.07;2.13;;;;;;;16.89;28.60;94467.63;5113877;27;20525;-76
2022/04/06 10:33:52;;;;;;;3.55;2.10;;;;;;;16.97;27.84;94460.53;5082733;28;20075;-76
2022/04/06 10:36:23;;;;;;;3.45;2.10;;;;;;;16.91;27.19;94442.88;5110012;27;20062;-76
2022/04/06 10:39:07;;;;;;;5.18;2.35;;;;;;;16.97;28.34;94446.59;5095107;27;20031;-76
2022/04/06 10:41:41;;;;;;;5.80;2.38;;;;;;;16.79;27.87;94436.38;5120737;27;20457;-76
2022/04/06 10:44:30;;;;;;;5.15;2.35;;;;;;;16.82;27.91;94456.19;5131101;27;20027;-76
2022/04/06 10:47:08;;;;;;;3.25;2.00;;;;;;;16.87;29.16;94441.56;5128768;27;20031;-76
2022/04/06 10:49:33;;;;;;;6.18;2.67;;;;;;;16.95;28.83;94436.25;5111948;27;20160;-77
2022/04/06 10:52:00;;;;;;;3.88;2.60;;;;;;;16.97;28.43;94434.28;5128397;27;20442;-76
2022/04/06 10:54:28;;;;;;;4.30;2.03;;;;;;;17.03;27.73;94430.16;5111163;27;20058;-76
2022/04/06 10:56:53;;;;;;;2.70;1.92;;;;;;;17.05;27.86;94428.16;5129106;27;20092;-76
2022/04/06 10:59:23;;;;;;;4.20;2.15;;;;;;;17.02;28.11;94427.69;5128359;27;20481;-77
2022/04/06 11:01:48;;;;;;;4.13;2.08;;;;;;;17.02;28.28;94428.53;5126318;27;20020;-76
2022/04/06 11:04:23;;;;;;;4.60;2.30;;;;;;;17.07;28.23;94420.09;5111127;28;20918;-76
2022/04/06 11:06:56;;;;;;;5.68;2.58;;;;;;;17.04;28.58;94426.50;5112303;27;20035;-76
2022/04/06 11:12:15;;;;;;;6.22;2.38;;;;;;;16.98;28.98;94407.03;5128582;27;20605;-76
2022/04/06 11:15:01;;;;;;;4.68;2.15;;;;;;;17.17;28.34;94412.81;5107455;27;20034;-72
2022/04/06 11:17:37;;;;;;;2.97;1.90;;;;;;;17.21;28.42;94406.19;5128678;27;20378;-72
2022/04/06 11:20:32;;;;;;;4.68;1.80;;;;;;;17.24;27.71;94410.28;5130251;27;20031;-72
2022/04/06 11:22:58;;;;;;;4.03;2.05;;;;;;;17.26;28.06;94401.25;5113294;27;20050;-72
2022/04/06 11:25:28;;;;;;;2.80;1.88;;;;;;;17.21;28.40;94387.84;5111998;27;20035;-72
2022/04/06 11:27:56;;;;;;;2.70;1.90;;;;;;;17.36;29.05;94395.75;5109492;28;20031;-72
2022/04/06 11:30:23;;;;;;;6.57;2.30;;;;;;;17.42;29.31;94393.22;5098083;28;20043;-73
2022/04/06 11:32:56;;;;;;;3.42;2.00;;;;;;;17.40;28.47;94384.69;5124445;28;20497;-72
2022/04/06 11:35:48;;;;;;;5.68;2.20;;;;;;;17.52;28.67;94379.00;5138891;27;20122;-72
2022/04/06 11:38:13;;;;;;;4.35;2.20;;;;;;;17.54;27.89;94377.03;5124094;28;20059;-72
2022/04/06 11:40:39;;;;;;;2.85;1.90;;;;;;;17.63;27.81;94375.94;5125862;27;20023;-72
2022/04/06 11:43:05;;;;;;;3.80;2.30;;;;;;;17.62;27.90;94375.13;5124335;28;20080;-72
2022/04/06 11:45:40;;;;;;;3.42;2.13;;;;;;;17.72;27.78;94360.91;5121246;27;20039;-73